Aeroporto :
LOGIN :

Iscrizione | Disclaimer

   EN    FR    IT 

 










Sommario :    VFR   VFR Marginale   IFR   IFR Intensivo   IFR Molto Intensivo
Visibilità : 
Base nubi : 
>= 8 km
>= 3000ft
5 / 8 km
1000 / 3000 ft
1500m / 5 km
500 / 1000 ft
800 / 1500m
200 / 500 ft
< 800m
< 200 ft
Simboli :   Temporali  Nebbia  Neve Forte  Precipitazioni Forti  Vento > 20 kt
SIGMETs :   Varie  Temporali  Ghiacco  Turbolenza  Onda orograficha  Ceneri Vulcaniche






- Altitudine del aeroporto : 0 ft


ENSL - Sleipner A Platform

ULTIMO METAR :
  • 272350Z AUTO 29037KT 9999NDV SCT025/// 06/02 Q0997 W04/S5

METARs OBSOLETI :
  • 272320Z AUTO 29038KT 9999NDV FEW024/// BKN062/// 06/02 Q0996 W04/S5
  • 272250Z AUTO 29035KT 9999NDV BKN033/// 06/01 Q0996 W05/S5
  • 272220Z AUTO 28039KT 9999NDV -SHRA BKN036/// BKN079/// 06/M01 Q0995 W04/S5
  • 272150Z AUTO 29038KT 9999NDV SCT037/// 07/M01 Q0995 W04/S4
  • 272120Z AUTO 29039KT 9999NDV -SHRA FEW035/// 06/M01 Q0995 W04/S4

Previsioni scadute.



MetMap, La meteo Aeronautica in un colpo d'occhio ! - Copyright ORBIFLY Dicembre 2007 - Disclaimer

ORBIFLY MET'MAP TEAM :

Programmazione e sviluppo : Alexandra Zaïnal
Concezione : Baudouin d'Aumeries
Aiuto per la programmazione : Marc-Olivier Méhu
Supporto tecnico e logistico : Manuel Goepfert
Aiuto per la traduzione : Arnaldo La Scala

Contatto : metmap@orbifly.com




FONTI E CREDITI :

   NOAA